Time,TemperatureF,DewpointF,PressureIn,WindDirection,WindDirectionDegrees,WindSpeedMPH,WindSpeedGustMPH,Humidity,HourlyPrecipIn,Conditions,Clouds,dailyrainin,SolarRadiationWatts/m^2,SoftwareType,DateUTC
2013-05-16 00:00:00,52.0,47.0,-100.00,WNW,292,1.0,-999.0,80,-99.99,,,-99.99,0.000000,,2013-05-16 04:00:00,
2013-05-16 00:42:00,52.0,47.0,-100.00,WNW,292,1.0,-999.0,80,-99.99,,,-99.99,0.000000,,2013-05-16 04:42:00,
2013-05-16 00:53:00,52.0,47.0,-100.00,WNW,292,1.0,-999.0,80,-99.99,,,-99.99,0.000000,,2013-05-16 04:53:00,
2013-05-16 01:00:00,50.0,46.0,-100.00,West,270,1.0,-999.0,85,-99.99,,,-99.99,0.000000,,2013-05-16 05:00:00,
2013-05-16 01:42:00,50.0,46.0,-100.00,West,270,1.0,-999.0,85,-99.99,,,-99.99,0.000000,,2013-05-16 05:42:00,
2013-05-16 01:52:00,50.0,46.0,-100.00,West,270,1.0,-999.0,85,-99.99,,,-99.99,0.000000,,2013-05-16 05:52:00,
2013-05-16 02:00:00,50.0,46.0,-100.00,WSW,247,1.0,-999.0,85,-99.99,,,-99.99,0.000000,,2013-05-16 06:00:00,
2013-05-16 02:43:00,50.0,46.0,-100.00,WSW,247,1.0,-999.0,85,-99.99,,,-99.99,0.000000,,2013-05-16 06:43:00,
2013-05-16 02:53:00,50.0,46.0,-100.00,WSW,247,1.0,-999.0,85,-99.99,,,-99.99,0.000000,,2013-05-16 06:53:00,
2013-05-16 03:00:00,49.0,45.0,-100.00,West,270,2.0,-999.0,85,-99.99,,,-99.99,0.000000,,2013-05-16 07:00:00,
2013-05-16 03:44:00,49.0,45.0,-100.00,West,270,2.0,-999.0,85,-99.99,,,-99.99,0.000000,,2013-05-16 07:44:00,
2013-05-16 03:54:00,49.0,45.0,-100.00,West,270,2.0,-999.0,85,-99.99,,,-99.99,0.000000,,2013-05-16 07:54:00,
2013-05-16 04:00:00,51.0,44.0,-100.00,West,270,1.0,-999.0,78,-99.99,,,-99.99,0.000000,,2013-05-16 08:00:00,
2013-05-16 04:45:00,51.0,44.0,-100.00,West,270,1.0,-999.0,78,-99.99,,,-99.99,0.000000,,2013-05-16 08:45:00,
2013-05-16 04:55:00,51.0,44.0,-100.00,West,270,1.0,-999.0,78,-99.99,,,-99.99,0.000000,,2013-05-16 08:55:00,
2013-05-16 05:00:00,48.0,44.0,-100.00,SW,225,0.0,-999.0,85,-99.99,,,-99.99,0.000000,,2013-05-16 09:00:00,
2013-05-16 05:45:00,48.0,44.0,-100.00,SW,225,0.0,-999.0,85,-99.99,,,-99.99,0.000000,,2013-05-16 09:45:00,
2013-05-16 05:55:00,48.0,44.0,-100.00,SW,225,0.0,-999.0,85,-99.99,,,-99.99,0.000000,,2013-05-16 09:55:00,
2013-05-16 06:00:00,47.0,43.0,-100.00,SW,225,2.0,-999.0,88,-99.99,,,-99.99,0.000000,,2013-05-16 10:00:00,
2013-05-16 06:45:00,47.0,43.0,-100.00,SW,225,2.0,-999.0,88,-99.99,,,-99.99,0.000000,,2013-05-16 10:45:00,
2013-05-16 06:56:00,47.0,43.0,-100.00,SW,225,2.0,-999.0,88,-99.99,,,-99.99,0.000000,,2013-05-16 10:56:00,
2013-05-16 07:00:00,48.0,44.0,-100.00,WSW,247,2.0,-999.0,85,-99.99,,,-99.99,22.040001,,2013-05-16 11:00:00,
2013-05-16 07:46:00,48.0,44.0,-100.00,WSW,247,2.0,-999.0,85,-99.99,,,-99.99,22.040001,,2013-05-16 11:46:00,
2013-05-16 07:57:00,48.0,44.0,-100.00,WSW,247,2.0,-999.0,85,-99.99,,,-99.99,22.040001,,2013-05-16 11:57:00,
2013-05-16 08:00:00,53.0,46.0,-100.00,SW,225,1.0,-999.0,77,-99.99,,,-99.99,169.360001,,2013-05-16 12:00:00,
2013-05-16 08:45:00,53.0,46.0,-100.00,SW,225,1.0,-999.0,77,-99.99,,,-99.99,169.360001,,2013-05-16 12:45:00,
2013-05-16 08:53:00,53.0,46.0,-100.00,SW,225,1.0,-999.0,77,-99.99,,,-99.99,169.360001,,2013-05-16 12:53:00,
2013-05-16 09:00:00,59.0,46.0,-100.00,WNW,292,5.0,-999.0,62,-99.99,,,-99.99,336.399994,,2013-05-16 13:00:00,
2013-05-16 09:44:00,59.0,46.0,-100.00,WNW,292,5.0,-999.0,62,-99.99,,,-99.99,336.399994,,2013-05-16 13:44:00,
2013-05-16 09:55:00,59.0,46.0,-100.00,WNW,292,5.0,-999.0,62,-99.99,,,-99.99,336.399994,,2013-05-16 13:55:00,
2013-05-16 10:00:00,64.0,46.0,-100.00,WNW,292,5.0,-999.0,52,-99.99,,,-99.99,493.000000,,2013-05-16 14:00:00,
2013-05-16 10:47:00,64.0,46.0,-100.00,WNW,292,5.0,-999.0,52,-99.99,,,-99.99,493.000000,,2013-05-16 14:47:00,
2013-05-16 10:56:00,64.0,46.0,-100.00,WNW,292,5.0,-999.0,52,-99.99,,,-99.99,493.000000,,2013-05-16 14:56:00,
2013-05-16 11:00:00,71.0,44.0,-100.00,SW,225,4.0,-999.0,38,-99.99,,,-99.99,635.679993,,2013-05-16 15:00:00,
2013-05-16 11:50:00,71.0,44.0,-100.00,SW,225,4.0,-999.0,38,-99.99,,,-99.99,635.679993,,2013-05-16 15:50:00,
2013-05-16 12:00:00,74.0,41.0,-100.00,SW,225,5.0,-999.0,30,-99.99,,,-99.99,736.599976,,2013-05-16 16:00:00,
2013-05-16 12:51:00,74.0,41.0,-100.00,SW,225,5.0,-999.0,30,-99.99,,,-99.99,736.599976,,2013-05-16 16:51:00,
2013-05-16 13:00:00,-999.0,-99.9,-100.00,West,270,7.0,-999.0,24,-99.99,,,-99.99,807.359985,,2013-05-16 17:00:00,
2013-05-16 13:50:00,-999.0,-99.9,-100.00,West,270,7.0,-999.0,24,-99.99,,,-99.99,807.359985,,2013-05-16 17:50:00,
2013-05-16 14:00:00,-999.0,-99.9,-100.00,West,270,8.0,-999.0,23,-99.99,,,-99.99,822.440002,,2013-05-16 18:00:00,
2013-05-16 14:50:00,-999.0,-99.9,-100.00,West,270,8.0,-999.0,23,-99.99,,,-99.99,822.440002,,2013-05-16 18:50:00,
2013-05-16 15:00:00,-999.0,-99.9,-100.00,SW,225,9.0,-999.0,23,-99.99,,,-99.99,780.679993,,2013-05-16 19:00:00,
2013-05-16 15:51:00,-999.0,-99.9,-100.00,SW,225,9.0,-999.0,23,-99.99,,,-99.99,780.679993,,2013-05-16 19:51:00,
2013-05-16 16:00:00,81.0,-99.9,-100.00,WNW,292,9.0,-999.0,22,-99.99,,,-99.99,760.960022,,2013-05-16 20:00:00,
2013-05-16 16:51:00,81.0,39.0,-100.00,WNW,292,9.0,-999.0,22,-99.99,,,-99.99,760.960022,,2013-05-16 20:51:00,
2013-05-16 17:00:00,-999.0,-99.9,-100.00,WSW,247,7.0,-999.0,21,-99.99,,,-99.99,636.840027,,2013-05-16 21:00:00,
2013-05-16 17:50:00,81.0,-99.9,-100.00,WSW,247,7.0,-999.0,21,-99.99,,,-99.99,636.840027,,2013-05-16 21:50:00,
2013-05-16 18:00:00,81.0,38.0,-100.00,SW,225,8.0,-999.0,21,-99.99,,,-99.99,460.519989,,2013-05-16 22:00:00,
2013-05-16 18:51:00,81.0,38.0,-100.00,SW,225,8.0,-999.0,21,-99.99,,,-99.99,460.519989,,2013-05-16 22:51:00,
2013-05-16 19:00:00,79.0,37.0,-100.00,SE,135,9.0,-999.0,22,-99.99,,,-99.99,312.040009,,2013-05-16 23:00:00,
2013-05-16 19:45:00,79.0,37.0,-100.00,SE,135,9.0,-999.0,22,-99.99,,,-99.99,312.040009,,2013-05-16 23:45:00,
2013-05-16 19:54:00,79.0,37.0,-100.00,SE,135,9.0,-999.0,22,-99.99,,,-99.99,312.040009,,2013-05-16 23:54:00,
2013-05-16 20:00:00,75.0,36.0,-100.00,NE,45,10.0,-999.0,25,-99.99,,,-99.99,158.919998,,2013-05-17 00:00:00,
2013-05-16 20:44:00,75.0,36.0,-100.00,NE,45,10.0,-999.0,25,-99.99,,,-99.99,158.919998,,2013-05-17 00:44:00,
2013-05-16 20:53:00,75.0,36.0,-100.00,NE,45,10.0,-999.0,25,-99.99,,,-99.99,158.919998,,2013-05-17 00:53:00,
2013-05-16 21:00:00,70.0,36.0,-100.00,NNE,22,6.0,-999.0,29,-99.99,,,-99.99,22.040001,,2013-05-17 01:00:00,
2013-05-16 21:44:00,70.0,36.0,-100.00,NNE,22,6.0,-999.0,29,-99.99,,,-99.99,22.040001,,2013-05-17 01:44:00,
2013-05-16 21:53:00,70.0,36.0,-100.00,NNE,22,6.0,-999.0,29,-99.99,,,-99.99,22.040001,,2013-05-17 01:53:00,
2013-05-16 22:00:00,64.0,36.0,-100.00,NE,45,4.0,-999.0,35,-99.99,,,-99.99,0.000000,,2013-05-17 02:00:00,
2013-05-16 22:42:00,64.0,36.0,-100.00,NE,45,4.0,-999.0,35,-99.99,,,-99.99,0.000000,,2013-05-17 02:42:00,
2013-05-16 22:53:00,64.0,36.0,-100.00,NE,45,4.0,-999.0,35,-99.99,,,-99.99,0.000000,,2013-05-17 02:53:00,
2013-05-16 23:00:00,61.0,36.0,-100.00,NE,45,5.0,-999.0,38,-99.99,,,-99.99,0.000000,,2013-05-17 03:00:00,
2013-05-16 23:43:00,61.0,36.0,-100.00,NE,45,5.0,-999.0,38,-99.99,,,-99.99,0.000000,,2013-05-17 03:43:00,
2013-05-16 23:53:00,61.0,36.0,-100.00,NE,45,5.0,-999.0,38,-99.99,,,-99.99,0.000000,,2013-05-17 03:53:00,